Terminal Aerodrome Forecast
Issued by NWS

Home | Current Version | Previous Version | Text Only | Print | Product List | Glossary On
Versions: 1 2 3 4 5 6 7 8 9 10 11 12 13 14 15 16 17 18 19 20 21 22 23 24 25 26 27 28 29 30 31 32
000
FTUS43 KGRB 282325
TAFRHI
TAF
KRHI 282325Z 2900/2924 19010KT P6SM SCT040 BKN250
     FM290100 16008KT P6SM BKN040
     FM290400 22007KT P6SM BKN040
      TEMPO 2905/2908 2SM TSRA BKN020CB
     FM291000 27008KT P6SM SCT100 BKN250
     FM291300 26013G23KT P6SM SCT070
     FM291500 25017G30KT P6SM SCT035 SCT070=

USA.gov is the U.S. government's official web portal to all federal, state and local government web resources and services.